Laurel, New York
Current Conditions -  °F | °C
As of 8:53 PM on Monday 20 Oct 2014 (Local Time) from KFOK Reporting Station
Scattered Clouds Scattered Clouds  
Wind Chill: 60°   Ceiling: Unl
Heat Index: 60°   Visibility: 10mi
Dew Point: 45°   Wind: 9mph
Humidity: 57%   Direction: 220°SW
Pressure: 30.01"   Gusts: NA
Location:  40.98°N, 72.55°W
Report Text: KFOK 210053Z AUTO 22008KT 10SM SCT041 16/07 A3001 RMK AO2 SLP163 T01560072 TSNO
Loading
Personal Weather Stations






























Interactive Weather Map
Tropical Storm Tracking
New forecast layout! Learn more

10-Day Weather Forecast

Advertisements
Track Severe Weather on mobile